sensor_id;sensor_type;location;lat;lon;timestamp;temperature;humidity
52963;DHT22;38827;53.024;6.596;2023-04-25T00:00:48;7.20;77.60
52963;DHT22;38827;53.024;6.596;2023-04-25T00:03:14;7.10;77.50
52963;DHT22;38827;53.024;6.596;2023-04-25T00:05:40;7.10;77.60
52963;DHT22;38827;53.024;6.596;2023-04-25T00:08:08;7.10;77.60
52963;DHT22;38827;53.024;6.596;2023-04-25T00:10:34;7.10;77.70
52963;DHT22;38827;53.024;6.596;2023-04-25T00:13:00;7.10;77.70
52963;DHT22;38827;53.024;6.596;2023-04-25T00:15:28;7.10;77.60
52963;DHT22;38827;53.024;6.596;2023-04-25T00:17:57;7.10;77.70
52963;DHT22;38827;53.024;6.596;2023-04-25T00:20:23;7.10;77.60
52963;DHT22;38827;53.024;6.596;2023-04-25T00:22:50;7.10;77.50
52963;DHT22;38827;53.024;6.596;2023-04-25T00:25:16;7.10;77.30
52963;DHT22;38827;53.024;6.596;2023-04-25T00:27:42;7.00;77.20
52963;DHT22;38827;53.024;6.596;2023-04-25T00:30:08;7.00;77.10
52963;DHT22;38827;53.024;6.596;2023-04-25T00:32:34;7.10;77.20
52963;DHT22;38827;53.024;6.596;2023-04-25T00:35:01;7.10;77.20
52963;DHT22;38827;53.024;6.596;2023-04-25T00:37:27;7.00;77.20
52963;DHT22;38827;53.024;6.596;2023-04-25T00:39:53;7.00;77.20
52963;DHT22;38827;53.024;6.596;2023-04-25T00:42:21;7.00;77.20
52963;DHT22;38827;53.024;6.596;2023-04-25T00:44:47;7.00;77.30
52963;DHT22;38827;53.024;6.596;2023-04-25T00:47:13;6.90;77.20
52963;DHT22;38827;53.024;6.596;2023-04-25T00:49:39;6.90;77.50
52963;DHT22;38827;53.024;6.596;2023-04-25T00:52:05;6.90;77.60
52963;DHT22;38827;53.024;6.596;2023-04-25T00:54:31;6.90;77.60
52963;DHT22;38827;53.024;6.596;2023-04-25T00:56:57;6.90;77.30
52963;DHT22;38827;53.024;6.596;2023-04-25T00:59:23;6.80;77.30
52963;DHT22;38827;53.024;6.596;2023-04-25T01:01:50;6.80;77.00
52963;DHT22;38827;53.024;6.596;2023-04-25T01:04:16;6.80;77.20
52963;DHT22;38827;53.024;6.596;2023-04-25T01:06:42;6.80;77.10
52963;DHT22;38827;53.024;6.596;2023-04-25T01:09:07;6.80;77.20
52963;DHT22;38827;53.024;6.596;2023-04-25T01:11:33;6.80;77.10
52963;DHT22;38827;53.024;6.596;2023-04-25T01:13:59;6.80;76.60
52963;DHT22;38827;53.024;6.596;2023-04-25T01:16:26;6.70;76.30
52963;DHT22;38827;53.024;6.596;2023-04-25T01:18:52;6.70;75.80
52963;DHT22;38827;53.024;6.596;2023-04-25T01:21:21;6.70;75.60
52963;DHT22;38827;53.024;6.596;2023-04-25T01:23:52;6.60;75.10
52963;DHT22;38827;53.024;6.596;2023-04-25T01:26:19;6.50;74.90
52963;DHT22;38827;53.024;6.596;2023-04-25T01:28:47;6.50;74.80
52963;DHT22;38827;53.024;6.596;2023-04-25T01:31:14;6.50;74.60
52963;DHT22;38827;53.024;6.596;2023-04-25T01:33:39;6.40;73.40
52963;DHT22;38827;53.024;6.596;2023-04-25T01:36:06;6.40;74.60
52963;DHT22;38827;53.024;6.596;2023-04-25T01:38:32;6.40;74.50
52963;DHT22;38827;53.024;6.596;2023-04-25T01:40:58;6.40;74.40
52963;DHT22;38827;53.024;6.596;2023-04-25T01:43:27;6.40;74.10
52963;DHT22;38827;53.024;6.596;2023-04-25T01:45:55;6.40;74.00
52963;DHT22;38827;53.024;6.596;2023-04-25T01:48:24;6.40;73.90
52963;DHT22;38827;53.024;6.596;2023-04-25T01:50:50;6.40;73.90
52963;DHT22;38827;53.024;6.596;2023-04-25T01:53:16;6.40;73.90
52963;DHT22;38827;53.024;6.596;2023-04-25T01:55:42;6.40;73.70
52963;DHT22;38827;53.024;6.596;2023-04-25T01:58:08;6.40;73.60
52963;DHT22;38827;53.024;6.596;2023-04-25T02:00:36;6.40;73.60
52963;DHT22;38827;53.024;6.596;2023-04-25T02:03:04;6.40;73.40
52963;DHT22;38827;53.024;6.596;2023-04-25T02:05:37;6.40;73.50
52963;DHT22;38827;53.024;6.596;2023-04-25T02:08:07;6.40;73.30
52963;DHT22;38827;53.024;6.596;2023-04-25T02:10:34;6.40;73.20
52963;DHT22;38827;53.024;6.596;2023-04-25T02:13:00;6.40;73.20
52963;DHT22;38827;53.024;6.596;2023-04-25T02:15:38;6.40;72.80
52963;DHT22;38827;53.024;6.596;2023-04-25T02:18:04;6.40;73.30
52963;DHT22;38827;53.024;6.596;2023-04-25T02:20:32;6.40;73.40
52963;DHT22;38827;53.024;6.596;2023-04-25T02:22:59;6.40;73.30
52963;DHT22;38827;53.024;6.596;2023-04-25T02:25:25;6.40;73.10
52963;DHT22;38827;53.024;6.596;2023-04-25T02:27:51;6.40;72.70
52963;DHT22;38827;53.024;6.596;2023-04-25T02:30:17;6.30;72.90
52963;DHT22;38827;53.024;6.596;2023-04-25T02:32:42;6.40;72.90
52963;DHT22;38827;53.024;6.596;2023-04-25T02:35:09;6.30;73.00
52963;DHT22;38827;53.024;6.596;2023-04-25T02:37:36;6.30;73.10
52963;DHT22;38827;53.024;6.596;2023-04-25T02:40:02;6.30;73.40
52963;DHT22;38827;53.024;6.596;2023-04-25T02:42:31;6.30;73.50
52963;DHT22;38827;53.024;6.596;2023-04-25T02:44:56;6.30;73.60
52963;DHT22;38827;53.024;6.596;2023-04-25T02:47:22;6.30;73.50
52963;DHT22;38827;53.024;6.596;2023-04-25T02:49:48;6.30;73.50
52963;DHT22;38827;53.024;6.596;2023-04-25T02:52:14;6.30;73.70
52963;DHT22;38827;53.024;6.596;2023-04-25T02:54:43;6.30;73.70
52963;DHT22;38827;53.024;6.596;2023-04-25T02:57:09;6.30;73.70
52963;DHT22;38827;53.024;6.596;2023-04-25T02:59:35;6.30;73.70
52963;DHT22;38827;53.024;6.596;2023-04-25T03:02:01;6.20;73.70
52963;DHT22;38827;53.024;6.596;2023-04-25T03:04:27;6.20;73.60
52963;DHT22;38827;53.024;6.596;2023-04-25T03:06:53;6.20;73.70
52963;DHT22;38827;53.024;6.596;2023-04-25T03:09:19;6.20;73.70
52963;DHT22;38827;53.024;6.596;2023-04-25T03:11:45;6.20;73.70
52963;DHT22;38827;53.024;6.596;2023-04-25T03:14:12;6.20;73.60
52963;DHT22;38827;53.024;6.596;2023-04-25T03:16:38;6.20;73.30
52963;DHT22;38827;53.024;6.596;2023-04-25T03:19:04;6.20;73.10
52963;DHT22;38827;53.024;6.596;2023-04-25T03:21:31;6.20;72.90
52963;DHT22;38827;53.024;6.596;2023-04-25T03:23:58;6.20;72.80
52963;DHT22;38827;53.024;6.596;2023-04-25T03:26:24;6.20;72.10
52963;DHT22;38827;53.024;6.596;2023-04-25T03:28:50;6.20;71.70
52963;DHT22;38827;53.024;6.596;2023-04-25T03:31:15;6.20;71.60
52963;DHT22;38827;53.024;6.596;2023-04-25T03:33:41;6.20;71.50
52963;DHT22;38827;53.024;6.596;2023-04-25T03:36:08;6.20;71.40
52963;DHT22;38827;53.024;6.596;2023-04-25T03:38:34;6.20;71.50
52963;DHT22;38827;53.024;6.596;2023-04-25T03:41:01;6.20;71.50
52963;DHT22;38827;53.024;6.596;2023-04-25T03:43:27;6.20;71.80
52963;DHT22;38827;53.024;6.596;2023-04-25T03:45:57;6.20;72.10
52963;DHT22;38827;53.024;6.596;2023-04-25T03:48:23;6.20;72.40
52963;DHT22;38827;53.024;6.596;2023-04-25T03:50:54;6.10;72.60
52963;DHT22;38827;53.024;6.596;2023-04-25T03:53:25;6.10;72.80
52963;DHT22;38827;53.024;6.596;2023-04-25T03:55:51;6.10;72.90
52963;DHT22;38827;53.024;6.596;2023-04-25T03:58:17;6.00;73.10
52963;DHT22;38827;53.024;6.596;2023-04-25T04:00:43;6.00;73.30
52963;DHT22;38827;53.024;6.596;2023-04-25T04:03:08;6.00;73.30
52963;DHT22;38827;53.024;6.596;2023-04-25T04:05:34;5.90;73.40
52963;DHT22;38827;53.024;6.596;2023-04-25T04:08:00;5.90;73.20
52963;DHT22;38827;53.024;6.596;2023-04-25T04:10:25;5.90;72.90
52963;DHT22;38827;53.024;6.596;2023-04-25T04:12:51;5.80;72.60
52963;DHT22;38827;53.024;6.596;2023-04-25T04:15:17;5.80;72.50
52963;DHT22;38827;53.024;6.596;2023-04-25T04:17:43;5.70;72.30
52963;DHT22;38827;53.024;6.596;2023-04-25T04:20:08;5.60;72.30
52963;DHT22;38827;53.024;6.596;2023-04-25T04:22:35;5.50;72.20
52963;DHT22;38827;53.024;6.596;2023-04-25T04:25:01;5.50;72.40
52963;DHT22;38827;53.024;6.596;2023-04-25T04:27:28;5.40;72.60
52963;DHT22;38827;53.024;6.596;2023-04-25T04:29:54;5.40;72.60
52963;DHT22;38827;53.024;6.596;2023-04-25T04:32:20;5.40;72.60
52963;DHT22;38827;53.024;6.596;2023-04-25T04:34:46;5.40;72.60
52963;DHT22;38827;53.024;6.596;2023-04-25T04:37:12;5.40;72.50
52963;DHT22;38827;53.024;6.596;2023-04-25T04:39:38;5.40;72.40
52963;DHT22;38827;53.024;6.596;2023-04-25T04:42:04;5.50;72.30
52963;DHT22;38827;53.024;6.596;2023-04-25T04:44:30;5.50;72.20
52963;DHT22;38827;53.024;6.596;2023-04-25T04:47:01;5.50;71.90
52963;DHT22;38827;53.024;6.596;2023-04-25T04:49:27;5.50;72.00
52963;DHT22;38827;53.024;6.596;2023-04-25T04:51:53;5.50;71.90
52963;DHT22;38827;53.024;6.596;2023-04-25T04:54:20;5.40;71.90
52963;DHT22;38827;53.024;6.596;2023-04-25T04:56:45;5.40;71.80
52963;DHT22;38827;53.024;6.596;2023-04-25T04:59:11;5.40;71.90
52963;DHT22;38827;53.024;6.596;2023-04-25T05:01:37;5.40;71.90
52963;DHT22;38827;53.024;6.596;2023-04-25T05:04:03;5.40;72.00
52963;DHT22;38827;53.024;6.596;2023-04-25T05:06:29;5.40;71.90
52963;DHT22;38827;53.024;6.596;2023-04-25T05:08:58;5.40;71.90
52963;DHT22;38827;53.024;6.596;2023-04-25T05:11:24;5.40;71.90
52963;DHT22;38827;53.024;6.596;2023-04-25T05:13:53;5.40;71.90
52963;DHT22;38827;53.024;6.596;2023-04-25T05:16:19;5.40;71.80
52963;DHT22;38827;53.024;6.596;2023-04-25T05:18:46;5.40;71.70
52963;DHT22;38827;53.024;6.596;2023-04-25T05:21:12;5.40;71.60
52963;DHT22;38827;53.024;6.596;2023-04-25T05:23:38;5.50;71.70
52963;DHT22;38827;53.024;6.596;2023-04-25T05:26:04;5.50;71.80
52963;DHT22;38827;53.024;6.596;2023-04-25T05:28:30;5.50;71.70
52963;DHT22;38827;53.024;6.596;2023-04-25T05:30:56;5.60;71.50
52963;DHT22;38827;53.024;6.596;2023-04-25T05:33:22;5.70;71.30
52963;DHT22;38827;53.024;6.596;2023-04-25T05:35:48;5.70;71.30
52963;DHT22;38827;53.024;6.596;2023-04-25T05:38:13;5.80;71.20
52963;DHT22;38827;53.024;6.596;2023-04-25T05:40:39;5.90;71.10
52963;DHT22;38827;53.024;6.596;2023-04-25T05:43:05;5.90;71.30
52963;DHT22;38827;53.024;6.596;2023-04-25T05:45:31;5.90;71.50
52963;DHT22;38827;53.024;6.596;2023-04-25T05:47:57;6.00;71.40
52963;DHT22;38827;53.024;6.596;2023-04-25T05:50:22;6.10;71.50
52963;DHT22;38827;53.024;6.596;2023-04-25T05:52:48;6.20;71.50
52963;DHT22;38827;53.024;6.596;2023-04-25T05:55:14;6.30;71.50
52963;DHT22;38827;53.024;6.596;2023-04-25T05:57:40;6.40;71.40
52963;DHT22;38827;53.024;6.596;2023-04-25T06:00:14;6.40;70.90
52963;DHT22;38827;53.024;6.596;2023-04-25T06:02:41;6.50;70.90
52963;DHT22;38827;53.024;6.596;2023-04-25T06:05:08;6.50;70.80
52963;DHT22;38827;53.024;6.596;2023-04-25T06:07:34;6.60;70.50
52963;DHT22;38827;53.024;6.596;2023-04-25T06:10:00;6.70;70.10
52963;DHT22;38827;53.024;6.596;2023-04-25T06:12:26;6.70;70.00
52963;DHT22;38827;53.024;6.596;2023-04-25T06:14:52;6.70;70.10
52963;DHT22;38827;53.024;6.596;2023-04-25T06:17:18;6.80;70.00
52963;DHT22;38827;53.024;6.596;2023-04-25T06:19:43;6.80;70.40
52963;DHT22;38827;53.024;6.596;2023-04-25T06:22:10;6.90;70.10
52963;DHT22;38827;53.024;6.596;2023-04-25T06:24:36;6.90;70.00
52963;DHT22;38827;53.024;6.596;2023-04-25T06:27:01;7.00;69.70
52963;DHT22;38827;53.024;6.596;2023-04-25T06:29:28;7.00;69.20
52963;DHT22;38827;53.024;6.596;2023-04-25T06:31:53;7.10;68.90
52963;DHT22;38827;53.024;6.596;2023-04-25T06:34:19;7.20;69.00
52963;DHT22;38827;53.024;6.596;2023-04-25T06:36:46;7.30;68.70
52963;DHT22;38827;53.024;6.596;2023-04-25T06:39:11;7.50;67.80
52963;DHT22;38827;53.024;6.596;2023-04-25T06:41:37;7.70;67.00
52963;DHT22;38827;53.024;6.596;2023-04-25T06:44:03;7.80;66.10
52963;DHT22;38827;53.024;6.596;2023-04-25T06:46:29;7.80;65.60
52963;DHT22;38827;53.024;6.596;2023-04-25T06:48:55;7.80;65.30
52963;DHT22;38827;53.024;6.596;2023-04-25T06:51:21;7.70;64.90
52963;DHT22;38827;53.024;6.596;2023-04-25T06:53:47;7.60;64.70
52963;DHT22;38827;53.024;6.596;2023-04-25T06:56:12;7.60;64.60
52963;DHT22;38827;53.024;6.596;2023-04-25T06:58:38;7.60;64.80
52963;DHT22;38827;53.024;6.596;2023-04-25T07:01:04;7.70;64.10
52963;DHT22;38827;53.024;6.596;2023-04-25T07:03:30;7.70;64.00
52963;DHT22;38827;53.024;6.596;2023-04-25T07:05:56;7.80;64.40
52963;DHT22;38827;53.024;6.596;2023-04-25T07:08:21;7.90;64.40
52963;DHT22;38827;53.024;6.596;2023-04-25T07:10:47;8.10;64.50
52963;DHT22;38827;53.024;6.596;2023-04-25T07:13:12;8.40;63.50
52963;DHT22;38827;53.024;6.596;2023-04-25T07:15:38;8.60;62.60
52963;DHT22;38827;53.024;6.596;2023-04-25T07:18:04;8.80;61.80
52963;DHT22;38827;53.024;6.596;2023-04-25T07:20:30;8.90;60.40
52963;DHT22;38827;53.024;6.596;2023-04-25T07:22:56;8.80;59.90
52963;DHT22;38827;53.024;6.596;2023-04-25T07:25:22;8.80;60.40
52963;DHT22;38827;53.024;6.596;2023-04-25T07:27:48;8.80;60.50
52963;DHT22;38827;53.024;6.596;2023-04-25T07:30:14;8.80;60.20
52963;DHT22;38827;53.024;6.596;2023-04-25T07:32:40;8.60;60.50
52963;DHT22;38827;53.024;6.596;2023-04-25T07:35:06;8.50;60.90
52963;DHT22;38827;53.024;6.596;2023-04-25T07:37:35;8.50;61.10
52963;DHT22;38827;53.024;6.596;2023-04-25T07:40:05;8.40;59.90
52963;DHT22;38827;53.024;6.596;2023-04-25T07:42:32;8.40;59.60
52963;DHT22;38827;53.024;6.596;2023-04-25T07:44:57;8.50;59.20
52963;DHT22;38827;53.024;6.596;2023-04-25T07:47:23;8.60;59.30
52963;DHT22;38827;53.024;6.596;2023-04-25T07:49:49;8.80;58.30
52963;DHT22;38827;53.024;6.596;2023-04-25T07:52:15;9.00;57.80
52963;DHT22;38827;53.024;6.596;2023-04-25T07:54:41;9.20;57.80
52963;DHT22;38827;53.024;6.596;2023-04-25T07:57:07;9.50;57.30
52963;DHT22;38827;53.024;6.596;2023-04-25T07:59:32;9.60;55.80
52963;DHT22;38827;53.024;6.596;2023-04-25T08:01:58;9.60;55.30
52963;DHT22;38827;53.024;6.596;2023-04-25T08:04:24;9.50;55.60
52963;DHT22;38827;53.024;6.596;2023-04-25T08:06:51;9.40;55.80
52963;DHT22;38827;53.024;6.596;2023-04-25T08:09:17;9.20;55.90
52963;DHT22;38827;53.024;6.596;2023-04-25T08:11:42;9.10;56.60
52963;DHT22;38827;53.024;6.596;2023-04-25T08:14:08;9.00;57.00
52963;DHT22;38827;53.024;6.596;2023-04-25T08:16:34;8.90;56.90
52963;DHT22;38827;53.024;6.596;2023-04-25T08:19:02;8.70;56.70
52963;DHT22;38827;53.024;6.596;2023-04-25T08:21:28;8.70;56.50
52963;DHT22;38827;53.024;6.596;2023-04-25T08:23:54;8.90;56.30
52963;DHT22;38827;53.024;6.596;2023-04-25T08:26:19;9.50;54.90
52963;DHT22;38827;53.024;6.596;2023-04-25T08:28:46;10.00;53.40
52963;DHT22;38827;53.024;6.596;2023-04-25T08:31:12;10.50;52.50
52963;DHT22;38827;53.024;6.596;2023-04-25T08:33:37;10.90;50.90
52963;DHT22;38827;53.024;6.596;2023-04-25T08:36:04;11.50;50.00
52963;DHT22;38827;53.024;6.596;2023-04-25T08:38:29;12.10;49.10
52963;DHT22;38827;53.024;6.596;2023-04-25T08:40:59;12.50;47.80
52963;DHT22;38827;53.024;6.596;2023-04-25T08:43:55;12.50;47.50
52963;DHT22;38827;53.024;6.596;2023-04-25T08:46:24;11.20;51.50
52963;DHT22;38827;53.024;6.596;2023-04-25T08:48:53;10.10;54.90
52963;DHT22;38827;53.024;6.596;2023-04-25T08:51:24;9.40;57.20
52963;DHT22;38827;53.024;6.596;2023-04-25T08:53:52;9.00;58.50
52963;DHT22;38827;53.024;6.596;2023-04-25T08:56:18;8.80;59.50
52963;DHT22;38827;53.024;6.596;2023-04-25T08:58:50;8.80;59.80
52963;DHT22;38827;53.024;6.596;2023-04-25T09:01:32;9.20;60.30
52963;DHT22;38827;53.024;6.596;2023-04-25T09:04:18;10.40;58.40
52963;DHT22;38827;53.024;6.596;2023-04-25T09:06:45;11.60;55.20
52963;DHT22;38827;53.024;6.596;2023-04-25T09:09:11;11.10;54.70
52963;DHT22;38827;53.024;6.596;2023-04-25T09:11:37;10.10;56.30
52963;DHT22;38827;53.024;6.596;2023-04-25T09:14:16;9.40;58.50
52963;DHT22;38827;53.024;6.596;2023-04-25T09:16:59;8.90;59.50
52963;DHT22;38827;53.024;6.596;2023-04-25T09:19:30;8.80;60.20
52963;DHT22;38827;53.024;6.596;2023-04-25T09:22:01;8.90;60.20
52963;DHT22;38827;53.024;6.596;2023-04-25T09:24:35;9.10;59.90
52963;DHT22;38827;53.024;6.596;2023-04-25T09:27:03;9.50;59.10
52963;DHT22;38827;53.024;6.596;2023-04-25T09:29:33;9.80;58.40
52963;DHT22;38827;53.024;6.596;2023-04-25T09:32:22;10.10;57.60
52963;DHT22;38827;53.024;6.596;2023-04-25T09:34:49;10.70;56.50
52963;DHT22;38827;53.024;6.596;2023-04-25T09:37:27;11.90;54.70
52963;DHT22;38827;53.024;6.596;2023-04-25T09:40:06;13.20;51.20
52963;DHT22;38827;53.024;6.596;2023-04-25T09:42:53;14.10;48.90
52963;DHT22;38827;53.024;6.596;2023-04-25T09:49:06;15.20;45.10
52963;DHT22;38827;53.024;6.596;2023-04-25T09:51:32;15.70;46.10
52963;DHT22;38827;53.024;6.596;2023-04-25T09:53:59;15.80;46.20
52963;DHT22;38827;53.024;6.596;2023-04-25T09:56:31;15.60;45.40
52963;DHT22;38827;53.024;6.596;2023-04-25T09:59:25;14.70;46.60
52963;DHT22;38827;53.024;6.596;2023-04-25T10:01:55;12.90;53.00
52963;DHT22;38827;53.024;6.596;2023-04-25T10:04:25;11.20;55.70
52963;DHT22;38827;53.024;6.596;2023-04-25T10:06:58;10.30;57.70
52963;DHT22;38827;53.024;6.596;2023-04-25T10:09:26;9.60;59.20
52963;DHT22;38827;53.024;6.596;2023-04-25T10:11:56;9.20;61.00
52963;DHT22;38827;53.024;6.596;2023-04-25T10:14:26;9.00;62.40
52963;DHT22;38827;53.024;6.596;2023-04-25T10:20:32;9.40;64.10
52963;DHT22;38827;53.024;6.596;2023-04-25T10:23:10;11.10;60.80
52963;DHT22;38827;53.024;6.596;2023-04-25T10:25:37;12.40;58.40
52963;DHT22;38827;53.024;6.596;2023-04-25T10:28:03;13.90;55.60
52963;DHT22;38827;53.024;6.596;2023-04-25T10:30:29;15.10;52.30
52963;DHT22;38827;53.024;6.596;2023-04-25T10:32:55;15.50;50.00
52963;DHT22;38827;53.024;6.596;2023-04-25T10:35:29;15.80;48.40
52963;DHT22;38827;53.024;6.596;2023-04-25T10:38:09;16.10;45.40
52963;DHT22;38827;53.024;6.596;2023-04-25T10:40:35;16.40;44.20
52963;DHT22;38827;53.024;6.596;2023-04-25T10:46:02;14.50;43.40
52963;DHT22;38827;53.024;6.596;2023-04-25T10:48:30;13.60;47.20
52963;DHT22;38827;53.024;6.596;2023-04-25T10:51:15;14.00;46.00
52963;DHT22;38827;53.024;6.596;2023-04-25T10:53:44;14.60;43.30
52963;DHT22;38827;53.024;6.596;2023-04-25T10:56:20;15.30;43.70
52963;DHT22;38827;53.024;6.596;2023-04-25T10:58:47;14.80;41.70
52963;DHT22;38827;53.024;6.596;2023-04-25T11:01:20;13.90;45.10
52963;DHT22;38827;53.024;6.596;2023-04-25T11:03:48;12.90;47.50
52963;DHT22;38827;53.024;6.596;2023-04-25T11:06:23;12.50;49.30
52963;DHT22;38827;53.024;6.596;2023-04-25T11:08:52;13.10;49.20
52963;DHT22;38827;53.024;6.596;2023-04-25T11:11:22;14.20;47.80
52963;DHT22;38827;53.024;6.596;2023-04-25T11:13:50;14.90;46.50
52963;DHT22;38827;53.024;6.596;2023-04-25T11:16:19;15.10;46.00
52963;DHT22;38827;53.024;6.596;2023-04-25T11:18:48;14.20;46.70
52963;DHT22;38827;53.024;6.596;2023-04-25T11:21:17;12.50;50.60
52963;DHT22;38827;53.024;6.596;2023-04-25T11:23:45;10.90;55.10
52963;DHT22;38827;53.024;6.596;2023-04-25T11:26:13;9.80;58.00
52963;DHT22;38827;53.024;6.596;2023-04-25T11:28:39;9.10;60.40
52963;DHT22;38827;53.024;6.596;2023-04-25T11:31:05;8.70;62.30
52963;DHT22;38827;53.024;6.596;2023-04-25T11:33:31;8.70;63.20
52963;DHT22;38827;53.024;6.596;2023-04-25T11:35:58;9.00;63.40
52963;DHT22;38827;53.024;6.596;2023-04-25T11:38:25;9.70;62.70
52963;DHT22;38827;53.024;6.596;2023-04-25T11:40:54;10.90;61.20
52963;DHT22;38827;53.024;6.596;2023-04-25T11:43:22;12.40;58.00
52963;DHT22;38827;53.024;6.596;2023-04-25T11:45:51;13.40;54.90
52963;DHT22;38827;53.024;6.596;2023-04-25T11:48:18;14.00;53.50
52963;DHT22;38827;53.024;6.596;2023-04-25T11:50:44;14.40;53.10
52963;DHT22;38827;53.024;6.596;2023-04-25T11:53:10;15.00;52.20
52963;DHT22;38827;53.024;6.596;2023-04-25T11:55:36;15.40;49.90
52963;DHT22;38827;53.024;6.596;2023-04-25T11:58:03;15.50;49.10
52963;DHT22;38827;53.024;6.596;2023-04-25T12:00:29;15.30;48.70
52963;DHT22;38827;53.024;6.596;2023-04-25T12:02:56;15.30;46.70
52963;DHT22;38827;53.024;6.596;2023-04-25T12:05:29;15.40;45.60
52963;DHT22;38827;53.024;6.596;2023-04-25T12:07:56;15.70;44.50
52963;DHT22;38827;53.024;6.596;2023-04-25T12:10:22;15.70;43.10
52963;DHT22;38827;53.024;6.596;2023-04-25T12:12:49;15.80;42.90
52963;DHT22;38827;53.024;6.596;2023-04-25T12:15:23;15.90;41.40
52963;DHT22;38827;53.024;6.596;2023-04-25T12:17:51;15.90;38.40
52963;DHT22;38827;53.024;6.596;2023-04-25T12:20:24;15.30;39.70
52963;DHT22;38827;53.024;6.596;2023-04-25T12:22:51;15.60;41.00
52963;DHT22;38827;53.024;6.596;2023-04-25T12:25:39;16.40;40.80
52963;DHT22;38827;53.024;6.596;2023-04-25T12:28:22;17.20;37.50
52963;DHT22;38827;53.024;6.596;2023-04-25T12:33:32;15.60;41.80
52963;DHT22;38827;53.024;6.596;2023-04-25T12:35:59;14.10;44.20
52963;DHT22;38827;53.024;6.596;2023-04-25T12:38:29;12.90;46.10
52963;DHT22;38827;53.024;6.596;2023-04-25T12:40:57;12.10;48.00
52963;DHT22;38827;53.024;6.596;2023-04-25T12:43:23;11.90;49.00
52963;DHT22;38827;53.024;6.596;2023-04-25T12:45:53;12.30;47.90
52963;DHT22;38827;53.024;6.596;2023-04-25T12:48:23;13.10;47.50
52963;DHT22;38827;53.024;6.596;2023-04-25T12:50:50;14.00;46.20
52963;DHT22;38827;53.024;6.596;2023-04-25T12:53:18;14.30;45.20
52963;DHT22;38827;53.024;6.596;2023-04-25T12:55:44;14.60;44.90
52963;DHT22;38827;53.024;6.596;2023-04-25T12:58:17;14.50;45.90
52963;DHT22;38827;53.024;6.596;2023-04-25T13:00:43;13.50;49.30
52963;DHT22;38827;53.024;6.596;2023-04-25T13:03:09;12.50;51.00
52963;DHT22;38827;53.024;6.596;2023-04-25T13:05:36;12.10;53.00
52963;DHT22;38827;53.024;6.596;2023-04-25T13:08:02;12.20;53.00
52963;DHT22;38827;53.024;6.596;2023-04-25T13:10:28;12.60;52.90
52963;DHT22;38827;53.024;6.596;2023-04-25T13:12:54;12.60;52.20
52963;DHT22;38827;53.024;6.596;2023-04-25T13:15:20;12.70;52.70
52963;DHT22;38827;53.024;6.596;2023-04-25T13:17:45;13.60;51.30
52963;DHT22;38827;53.024;6.596;2023-04-25T13:20:12;14.50;49.40
52963;DHT22;38827;53.024;6.596;2023-04-25T13:22:38;14.50;48.80
52963;DHT22;38827;53.024;6.596;2023-04-25T13:25:06;13.70;47.20
52963;DHT22;38827;53.024;6.596;2023-04-25T13:27:33;12.80;50.00
52963;DHT22;38827;53.024;6.596;2023-04-25T13:30:00;11.90;50.40
52963;DHT22;38827;53.024;6.596;2023-04-25T13:32:27;11.10;51.30
52963;DHT22;38827;53.024;6.596;2023-04-25T13:34:53;10.50;51.90
52963;DHT22;38827;53.024;6.596;2023-04-25T13:37:18;10.20;52.10
52963;DHT22;38827;53.024;6.596;2023-04-25T13:39:44;10.10;52.70
52963;DHT22;38827;53.024;6.596;2023-04-25T13:42:10;10.30;52.30
52963;DHT22;38827;53.024;6.596;2023-04-25T13:44:36;10.70;51.80
52963;DHT22;38827;53.024;6.596;2023-04-25T13:47:02;11.30;51.20
52963;DHT22;38827;53.024;6.596;2023-04-25T13:49:28;12.60;49.10
52963;DHT22;38827;53.024;6.596;2023-04-25T13:51:54;13.30;47.30
52963;DHT22;38827;53.024;6.596;2023-04-25T13:54:19;12.90;47.80
52963;DHT22;38827;53.024;6.596;2023-04-25T13:56:45;12.40;49.00
52963;DHT22;38827;53.024;6.596;2023-04-25T13:59:11;11.90;50.00
52963;DHT22;38827;53.024;6.596;2023-04-25T14:01:37;11.30;51.10
52963;DHT22;38827;53.024;6.596;2023-04-25T14:04:03;10.30;53.10
52963;DHT22;38827;53.024;6.596;2023-04-25T14:06:30;9.40;55.60
52963;DHT22;38827;53.024;6.596;2023-04-25T14:08:56;8.70;58.20
52963;DHT22;38827;53.024;6.596;2023-04-25T14:11:22;8.20;60.10
52963;DHT22;38827;53.024;6.596;2023-04-25T14:13:48;7.90;60.60
52963;DHT22;38827;53.024;6.596;2023-04-25T14:16:15;7.90;61.30
52963;DHT22;38827;53.024;6.596;2023-04-25T14:18:41;8.10;61.20
52963;DHT22;38827;53.024;6.596;2023-04-25T14:21:07;8.60;60.10
52963;DHT22;38827;53.024;6.596;2023-04-25T14:23:32;9.20;59.30
52963;DHT22;38827;53.024;6.596;2023-04-25T14:25:58;9.50;57.50
52963;DHT22;38827;53.024;6.596;2023-04-25T14:28:24;9.60;57.30
52963;DHT22;38827;53.024;6.596;2023-04-25T14:30:49;9.70;56.30
52963;DHT22;38827;53.024;6.596;2023-04-25T14:33:15;9.80;55.00
52963;DHT22;38827;53.024;6.596;2023-04-25T14:35:41;10.30;54.50
52963;DHT22;38827;53.024;6.596;2023-04-25T14:38:07;11.20;53.20
52963;DHT22;38827;53.024;6.596;2023-04-25T14:40:33;12.00;51.90
52963;DHT22;38827;53.024;6.596;2023-04-25T14:42:59;12.50;49.80
52963;DHT22;38827;53.024;6.596;2023-04-25T14:45:25;12.30;49.60
52963;DHT22;38827;53.024;6.596;2023-04-25T14:47:51;11.60;50.70
52963;DHT22;38827;53.024;6.596;2023-04-25T14:50:17;11.00;51.80
52963;DHT22;38827;53.024;6.596;2023-04-25T14:52:44;10.60;53.30
52963;DHT22;38827;53.024;6.596;2023-04-25T14:55:10;10.30;53.50
52963;DHT22;38827;53.024;6.596;2023-04-25T14:57:39;10.20;54.30
52963;DHT22;38827;53.024;6.596;2023-04-25T15:00:05;10.70;53.00
52963;DHT22;38827;53.024;6.596;2023-04-25T15:02:35;11.20;51.30
52963;DHT22;38827;53.024;6.596;2023-04-25T15:05:01;11.60;48.90
52963;DHT22;38827;53.024;6.596;2023-04-25T15:07:27;11.40;48.70
52963;DHT22;38827;53.024;6.596;2023-04-25T15:09:53;11.40;48.40
52963;DHT22;38827;53.024;6.596;2023-04-25T15:16:00;11.20;47.30
52963;DHT22;38827;53.024;6.596;2023-04-25T15:18:26;11.20;48.70
52963;DHT22;38827;53.024;6.596;2023-04-25T15:20:52;11.30;48.90
52963;DHT22;38827;53.024;6.596;2023-04-25T15:23:20;11.30;49.70
52963;DHT22;38827;53.024;6.596;2023-04-25T15:25:50;11.20;50.20
52963;DHT22;38827;53.024;6.596;2023-04-25T15:28:16;10.90;50.60
52963;DHT22;38827;53.024;6.596;2023-04-25T15:30:43;10.50;52.00
52963;DHT22;38827;53.024;6.596;2023-04-25T15:33:09;10.30;52.40
52963;DHT22;38827;53.024;6.596;2023-04-25T15:35:35;10.10;53.10
52963;DHT22;38827;53.024;6.596;2023-04-25T15:38:00;10.20;53.20
52963;DHT22;38827;53.024;6.596;2023-04-25T15:40:26;10.20;53.20
52963;DHT22;38827;53.024;6.596;2023-04-25T15:42:52;10.30;53.70
52963;DHT22;38827;53.024;6.596;2023-04-25T15:45:23;10.40;53.50
52963;DHT22;38827;53.024;6.596;2023-04-25T15:48:12;10.40;52.30
52963;DHT22;38827;53.024;6.596;2023-04-25T15:50:52;10.40;52.30
52963;DHT22;38827;53.024;6.596;2023-04-25T15:53:17;10.40;51.80
52963;DHT22;38827;53.024;6.596;2023-04-25T15:55:43;10.30;51.90
52963;DHT22;38827;53.024;6.596;2023-04-25T15:58:09;10.30;52.00